Private Wetterstation Sandau
Wetterdaten: Sonntag, 04.03.2012
Datum Zeit Temp. A. Feuchte A. Luftdruck Regen Wind Richtung Richtung Taupunkt Windchill
04.03.2012 00:02 3,7 C 64 % 1027,2 hPa 0,0 l/m 9,0 km/h (2 Bft) O-SO 112 -2,5 C 1,3 C
04.03.2012 00:07 3,6 C 64 % 1027,1 hPa 0,0 l/m 8,3 km/h (2 Bft) O 90 -2,6 C 1,4 C
04.03.2012 00:12 3,6 C 64 % 1027,1 hPa 0,0 l/m 5,0 km/h (1 Bft) O-SO 112 -2,6 C 2,5 C
04.03.2012 00:17 3,6 C 65 % 1027,1 hPa 0,0 l/m 6,5 km/h (2 Bft) O 90 -2,4 C 1,9 C
04.03.2012 00:22 3,5 C 65 % 1027,1 hPa 0,0 l/m 7,9 km/h (2 Bft) O 90 -2,4 C 1,4 C
04.03.2012 00:27 3,5 C 65 % 1027,1 hPa 0,0 l/m 6,1 km/h (2 Bft) SO 135 -2,4 C 2,0 C
04.03.2012 00:32 3,4 C 66 % 1027,1 hPa 0,0 l/m 8,3 km/h (2 Bft) O 90 -2,3 C 1,2 C
04.03.2012 00:37 3,4 C 66 % 1027,1 hPa 0,0 l/m 10,8 km/h (2 Bft) O-SO 112 -2,3 C 0,6 C
04.03.2012 00:42 3,4 C 66 % 1027,2 hPa 0,0 l/m 11,5 km/h (2 Bft) O-SO 112 -2,3 C 0,4 C
04.03.2012 00:47 3,4 C 66 % 1027,0 hPa 0,0 l/m 9,4 km/h (2 Bft) SO 135 -2,3 C 0,9 C
04.03.2012 00:52 3,4 C 66 % 1026,9 hPa 0,0 l/m 10,1 km/h (2 Bft) O 90 -2,3 C 0,7 C
04.03.2012 00:57 3,4 C 66 % 1026,9 hPa 0,0 l/m 11,5 km/h (2 Bft) O 90 -2,3 C 0,4 C
04.03.2012 01:02 3,4 C 65 % 1027,0 hPa 0,0 l/m 7,2 km/h (2 Bft) O 90 -2,5 C 1,5 C
04.03.2012 01:07 3,4 C 65 % 1027,0 hPa 0,0 l/m 9,4 km/h (2 Bft) O 90 -2,5 C 0,9 C
04.03.2012 01:12 3,4 C 65 % 1027,2 hPa 0,0 l/m 5,0 km/h (1 Bft) O-NO 67 -2,5 C 2,3 C
04.03.2012 01:17 3,4 C 65 % 1026,9 hPa 0,0 l/m 8,6 km/h (2 Bft) O 90 -2,5 C 1,1 C
04.03.2012 01:22 3,4 C 65 % 1027,0 hPa 0,0 l/m 6,8 km/h (2 Bft) O 90 -2,5 C 1,6 C
04.03.2012 01:27 3,4 C 65 % 1026,9 hPa 0,0 l/m 8,3 km/h (2 Bft) O-NO 67 -2,5 C 1,2 C
04.03.2012 01:32 3,4 C 65 % 1026,9 hPa 0,0 l/m 11,5 km/h (2 Bft) O 90 -2,5 C 0,4 C
04.03.2012 01:37 3,4 C 64 % 1026,9 hPa 0,0 l/m 4,3 km/h (1 Bft) O 90 -2,7 C 3,4 C
04.03.2012 01:42 3,4 C 64 % 1027,0 hPa 0,0 l/m 5,8 km/h (2 Bft) O 90 -2,7 C 2,0 C
04.03.2012 01:47 3,5 C 64 % 1027,0 hPa 0,0 l/m 4,0 km/h (1 Bft) O 90 -2,7 C 3,5 C
04.03.2012 01:52 3,5 C 64 % 1026,9 hPa 0,0 l/m 7,2 km/h (2 Bft) SO 135 -2,7 C 1,6 C
04.03.2012 01:57 3,4 C 65 % 1026,9 hPa 0,0 l/m 5,0 km/h (1 Bft) S-SO 157 -2,5 C 2,3 C
04.03.2012 02:02 3,4 C 65 % 1026,8 hPa 0,0 l/m 7,6 km/h (2 Bft) SO 135 -2,5 C 1,4 C
04.03.2012 02:07 3,4 C 65 % 1026,8 hPa 0,0 l/m 10,1 km/h (2 Bft) O-SO 112 -2,5 C 0,7 C
04.03.2012 02:12 3,3 C 65 % 1026,8 hPa 0,0 l/m 6,1 km/h (2 Bft) O-SO 112 -2,6 C 1,7 C
04.03.2012 02:17 3,3 C 66 % 1026,8 hPa 0,0 l/m 8,3 km/h (2 Bft) O-SO 112 -2,4 C 1,1 C
04.03.2012 02:22 3,3 C 66 % 1026,8 hPa 0,0 l/m 9,4 km/h (2 Bft) O 90 -2,4 C 0,8 C
04.03.2012 02:27 3,3 C 66 % 1026,8 hPa 0,0 l/m 7,6 km/h (2 Bft) O-SO 112 -2,4 C 1,3 C
04.03.2012 02:32 3,3 C 66 % 1026,5 hPa 0,0 l/m 6,1 km/h (2 Bft) O-SO 112 -2,4 C 1,7 C
04.03.2012 02:37 3,3 C 66 % 1026,6 hPa 0,0 l/m 11,9 km/h (2 Bft) O-SO 112 -2,4 C 0,2 C
04.03.2012 02:42 3,2 C 66 % 1026,6 hPa 0,0 l/m 5,8 km/h (2 Bft) O 90 -2,5 C 1,7 C
04.03.2012 02:47 3,2 C 66 % 1026,4 hPa 0,0 l/m 7,2 km/h (2 Bft) O-SO 112 -2,5 C 1,3 C
04.03.2012 02:52 3,2 C 66 % 1026,5 hPa 0,0 l/m 6,5 km/h (2 Bft) O 90 -2,5 C 1,5 C
04.03.2012 02:57 3,1 C 66 % 1026,6 hPa 0,0 l/m 7,9 km/h (2 Bft) O 90 -2,6 C 0,9 C
04.03.2012 03:02 3,1 C 66 % 1026,5 hPa 0,0 l/m 8,3 km/h (2 Bft) O-SO 112 -2,6 C 0,8 C
04.03.2012 03:07 3,1 C 66 % 1026,5 hPa 0,0 l/m 4,7 km/h (1 Bft) O-SO 112 -2,6 C 2,1 C
04.03.2012 03:12 3,1 C 66 % 1026,7 hPa 0,0 l/m 4,7 km/h (1 Bft) SO 135 -2,6 C 2,1 C
04.03.2012 03:17 3,1 C 66 % 1026,4 hPa 0,0 l/m 6,1 km/h (2 Bft) O-NO 67 -2,6 C 1,5 C
04.03.2012 03:22 3,1 C 66 % 1026,4 hPa 0,0 l/m 11,9 km/h (2 Bft) O-SO 112 -2,6 C -0,0 C
04.03.2012 03:27 3,1 C 67 % 1026,6 hPa 0,0 l/m 3,6 km/h (1 Bft) SO 135 -2,4 C 3,1 C
04.03.2012 03:32 3,1 C 67 % 1026,5 hPa 0,0 l/m 7,2 km/h (2 Bft) O-SO 112 -2,4 C 1,1 C
04.03.2012 03:37 3,1 C 67 % 1026,1 hPa 0,0 l/m 4,0 km/h (1 Bft) O 90 -2,4 C 3,1 C
04.03.2012 03:42 3,1 C 67 % 1026,1 hPa 0,0 l/m 7,9 km/h (2 Bft) O-SO 112 -2,4 C 0,9 C
04.03.2012 03:47 3,1 C 67 % 1026,1 hPa 0,0 l/m 11,2 km/h (2 Bft) O 90 -2,4 C 0,1 C
04.03.2012 03:52 3,0 C 67 % 1026,1 hPa 0,0 l/m 11,2 km/h (2 Bft) O-SO 112 -2,5 C -0,0 C
04.03.2012 03:57 3,0 C 68 % 1025,9 hPa 0,0 l/m 4,7 km/h (1 Bft) O 90 -2,3 C 1,9 C
04.03.2012 04:02 3,0 C 68 % 1026,0 hPa 0,0 l/m 10,1 km/h (2 Bft) SO 135 -2,3 C 0,2 C
04.03.2012 04:07 3,0 C 68 % 1025,8 hPa 0,0 l/m 7,9 km/h (2 Bft) O 90 -2,3 C 0,8 C
04.03.2012 04:12 2,9 C 68 % 1025,9 hPa 0,0 l/m 7,6 km/h (2 Bft) O-SO 112 -2,4 C 0,8 C
04.03.2012 04:17 3,0 C 68 % 1025,9 hPa 0,0 l/m 7,2 km/h (2 Bft) O 90 -2,3 C 1,0 C
04.03.2012 04:22 3,0 C 68 % 1025,7 hPa 0,0 l/m 6,1 km/h (2 Bft) O-SO 112 -2,3 C 1,4 C
04.03.2012 04:27 2,9 C 68 % 1025,7 hPa 0,0 l/m 5,0 km/h (1 Bft) O 90 -2,4 C 1,7 C
04.03.2012 04:32 2,9 C 68 % 1025,6 hPa 0,0 l/m 10,4 km/h (2 Bft) O-NO 67 -2,4 C 0,1 C
04.03.2012 04:37 2,9 C 68 % 1025,7 hPa 0,0 l/m 5,0 km/h (1 Bft) O-SO 112 -2,4 C 1,7 C
04.03.2012 04:42 2,9 C 68 % 1025,7 hPa 0,0 l/m 9,4 km/h (2 Bft) O-SO 112 -2,4 C 0,3 C
04.03.2012 04:47 2,9 C 69 % 1025,6 hPa 0,0 l/m 4,0 km/h (1 Bft) O 90 -2,2 C 2,9 C
04.03.2012 04:52 2,9 C 69 % 1025,7 hPa 0,0 l/m 4,0 km/h (1 Bft) O 90 -2,2 C 2,9 C
04.03.2012 04:57 2,9 C 69 % 1025,6 hPa 0,0 l/m 7,2 km/h (2 Bft) O-SO 112 -2,2 C 0,9 C
04.03.2012 05:02 2,9 C 69 % 1025,5 hPa 0,0 l/m 6,1 km/h (2 Bft) O 90 -2,2 C 1,3 C
04.03.2012 05:07 2,9 C 69 % 1025,4 hPa 0,0 l/m 7,2 km/h (2 Bft) O-SO 112 -2,2 C 0,9 C
04.03.2012 05:12 2,9 C 69 % 1025,5 hPa 0,0 l/m 7,9 km/h (2 Bft) O 90 -2,2 C 0,7 C
04.03.2012 05:17 2,9 C 69 % 1025,5 hPa 0,0 l/m 6,5 km/h (2 Bft) O-SO 112 -2,2 C 1,1 C
04.03.2012 05:22 2,9 C 69 % 1025,4 hPa 0,0 l/m 4,7 km/h (1 Bft) O 90 -2,2 C 1,8 C
04.03.2012 05:27 2,9 C 69 % 1025,4 hPa 0,0 l/m 5,4 km/h (1 Bft) O-SO 112 -2,2 C 1,5 C
04.03.2012 05:32 2,9 C 69 % 1025,3 hPa 0,0 l/m 10,4 km/h (2 Bft) SO 135 -2,2 C 0,1 C
04.03.2012 05:37 2,9 C 69 % 1025,3 hPa 0,0 l/m 7,6 km/h (2 Bft) S-SO 157 -2,2 C 0,8 C
04.03.2012 05:42 2,9 C 69 % 1025,2 hPa 0,0 l/m 5,0 km/h (1 Bft) O 90 -2,2 C 1,7 C
04.03.2012 05:47 2,9 C 69 % 1025,3 hPa 0,0 l/m 4,3 km/h (1 Bft) O-NO 67 -2,2 C 2,9 C
04.03.2012 05:52 3,0 C 68 % 1025,4 hPa 0,0 l/m 5,4 km/h (1 Bft) O-NO 67 -2,3 C 1,7 C
04.03.2012 05:57 3,0 C 68 % 1025,3 hPa 0,0 l/m 5,0 km/h (1 Bft) O 90 -2,3 C 1,8 C
04.03.2012 06:02 3,1 C 68 % 1025,5 hPa 0,0 l/m 2,5 km/h (1 Bft) SO 135 -2,2 C 3,1 C
04.03.2012 06:07 3,1 C 68 % 1025,3 hPa 0,0 l/m 4,3 km/h (1 Bft) O-NO 67 -2,2 C 3,1 C
04.03.2012 06:12 3,1 C 68 % 1025,3 hPa 0,0 l/m 4,7 km/h (1 Bft) SO 135 -2,2 C 2,1 C
04.03.2012 06:17 3,1 C 68 % 1025,3 hPa 0,0 l/m 2,5 km/h (1 Bft) SO 135 -2,2 C 3,1 C
04.03.2012 06:22 3,2 C 68 % 1025,4 hPa 0,0 l/m 4,0 km/h (1 Bft) O-SO 112 -2,1 C 3,2 C
04.03.2012 06:27 3,2 C 67 % 1025,1 hPa 0,0 l/m 10,1 km/h (2 Bft) O-SO 112 -2,3 C 0,5 C
04.03.2012 06:32 3,2 C 67 % 1025,1 hPa 0,0 l/m 6,8 km/h (2 Bft) SO 135 -2,3 C 1,4 C
04.03.2012 06:37 3,3 C 66 % 1025,0 hPa 0,0 l/m 13,3 km/h (3 Bft) SO 135 -2,4 C -0,1 C
04.03.2012 06:42 3,3 C 66 % 1025,2 hPa 0,0 l/m 7,2 km/h (2 Bft) SO 135 -2,4 C 1,4 C
04.03.2012 06:47 3,3 C 66 % 1025,2 hPa 0,0 l/m 7,9 km/h (2 Bft) O 90 -2,4 C 1,2 C
04.03.2012 06:52 3,3 C 66 % 1025,2 hPa 0,0 l/m 5,8 km/h (2 Bft) O 90 -2,4 C 1,8 C
04.03.2012 06:57 3,3 C 66 % 1025,1 hPa 0,0 l/m 5,0 km/h (1 Bft) SO 135 -2,4 C 2,2 C
04.03.2012 07:02 3,3 C 66 % 1025,1 hPa 0,0 l/m 5,4 km/h (1 Bft) O 90 -2,4 C 2,0 C
04.03.2012 07:07 3,3 C 66 % 1025,2 hPa 0,0 l/m 5,0 km/h (1 Bft) O-SO 112 -2,4 C 2,2 C
04.03.2012 07:12 3,3 C 66 % 1025,1 hPa 0,0 l/m 3,6 km/h (1 Bft) SO 135 -2,4 C 3,3 C
04.03.2012 07:17 3,3 C 65 % 1025,2 hPa 0,0 l/m 6,5 km/h (2 Bft) O 90 -2,6 C 1,6 C
04.03.2012 07:22 3,3 C 65 % 1025,1 hPa 0,0 l/m 9,4 km/h (2 Bft) SO 135 -2,6 C 0,8 C
04.03.2012 07:27 3,3 C 66 % 1025,2 hPa 0,0 l/m 11,5 km/h (2 Bft) S-SO 157 -2,4 C 0,3 C
04.03.2012 07:32 3,3 C 65 % 1025,1 hPa 0,0 l/m 12,6 km/h (3 Bft) SO 135 -2,6 C 0,1 C
04.03.2012 07:37 3,3 C 66 % 1025,1 hPa 0,0 l/m 8,6 km/h (2 Bft) O-SO 112 -2,4 C 1,0 C
04.03.2012 07:42 3,3 C 66 % 1025,2 hPa 0,0 l/m 5,0 km/h (1 Bft) SO 135 -2,4 C 2,2 C
04.03.2012 07:47 3,3 C 66 % 1025,4 hPa 0,0 l/m 2,9 km/h (1 Bft) O-SO 112 -2,4 C 3,3 C
04.03.2012 07:52 3,3 C 65 % 1025,5 hPa 0,0 l/m 7,9 km/h (2 Bft) SO 135 -2,6 C 1,2 C
04.03.2012 07:57 3,3 C 65 % 1025,4 hPa 0,0 l/m 11,9 km/h (2 Bft) O-SO 112 -2,6 C 0,2 C
04.03.2012 08:02 3,3 C 66 % 1025,5 hPa 0,0 l/m 4,7 km/h (1 Bft) O-SO 112 -2,4 C 2,3 C
04.03.2012 08:07 3,3 C 65 % 1025,3 hPa 0,0 l/m 8,3 km/h (2 Bft) O 90 -2,6 C 1,1 C
04.03.2012 08:12 3,3 C 66 % 1025,2 hPa 0,0 l/m 14,8 km/h (3 Bft) S-SO 157 -2,4 C -0,3 C
04.03.2012 08:17 3,3 C 66 % 1025,3 hPa 0,0 l/m 11,2 km/h (2 Bft) O-SO 112 -2,4 C 0,4 C
04.03.2012 08:22 3,3 C 66 % 1025,3 hPa 0,0 l/m 9,7 km/h (2 Bft) O-SO 112 -2,4 C 0,7 C
04.03.2012 08:27 3,3 C 66 % 1025,4 hPa 0,0 l/m 8,6 km/h (2 Bft) SO 135 -2,4 C 1,0 C
04.03.2012 08:32 3,3 C 66 % 1025,4 hPa 0,0 l/m 8,3 km/h (2 Bft) O 90 -2,4 C 1,1 C
04.03.2012 08:37 3,3 C 67 % 1025,4 hPa 0,0 l/m 11,9 km/h (2 Bft) O 90 -2,2 C 0,2 C
04.03.2012 08:42 3,3 C 68 % 1025,3 hPa 0,0 l/m 11,9 km/h (2 Bft) O-SO 112 -2,0 C 0,2 C
04.03.2012 08:47 3,3 C 68 % 1025,2 hPa 0,0 l/m 11,2 km/h (2 Bft) O-SO 112 -2,0 C 0,4 C
04.03.2012 08:52 3,2 C 68 % 1025,3 hPa 0,0 l/m 7,9 km/h (2 Bft) O-SO 112 -2,1 C 1,0 C
04.03.2012 08:57 3,2 C 69 % 1025,2 hPa 0,0 l/m 3,2 km/h (1 Bft) SO 135 -1,9 C 3,2 C
04.03.2012 09:02 3,1 C 69 % 1025,3 hPa 0,0 l/m 11,5 km/h (2 Bft) O-SO 112 -2,0 C 0,1 C
04.03.2012 09:07 3,1 C 69 % 1025,2 hPa 0,0 l/m 9,7 km/h (2 Bft) O 90 -2,0 C 0,5 C
04.03.2012 09:12 3,1 C 70 % 1025,3 hPa 0,0 l/m 13,7 km/h (3 Bft) O-NO 67 -1,8 C -0,4 C
04.03.2012 09:17 3,1 C 70 % 1025,3 hPa 0,0 l/m 10,8 km/h (2 Bft) O 90 -1,8 C 0,2 C
04.03.2012 09:22 3,0 C 70 % 1025,1 hPa 0,0 l/m 8,3 km/h (2 Bft) O-SO 112 -1,9 C 0,7 C
04.03.2012 09:27 3,0 C 71 % 1025,3 hPa 0,0 l/m 5,8 km/h (2 Bft) S-SO 157 -1,7 C 1,5 C
04.03.2012 09:32 3,1 C 70 % 1025,3 hPa 0,0 l/m 14,0 km/h (3 Bft) O-SO 112 -1,8 C -0,4 C
04.03.2012 09:37 3,2 C 69 % 1025,4 hPa 0,0 l/m 5,8 km/h (2 Bft) O-NO 67 -1,9 C 1,7 C
04.03.2012 09:42 3,3 C 68 % 1025,4 hPa 0,0 l/m 3,6 km/h (1 Bft) SO 135 -2,0 C 3,3 C
04.03.2012 09:47 3,3 C 68 % 1025,5 hPa 0,0 l/m 16,2 km/h (3 Bft) O-SO 112 -2,0 C -0,5 C
04.03.2012 09:52 3,3 C 67 % 1025,4 hPa 0,0 l/m 2,5 km/h (1 Bft) O-SO 112 -2,2 C 3,3 C
04.03.2012 09:57 3,4 C 67 % 1025,3 hPa 0,0 l/m 2,5 km/h (1 Bft) SO 135 -2,1 C 3,4 C
04.03.2012 10:02 3,5 C 67 % 1025,4 hPa 0,0 l/m 6,1 km/h (2 Bft) S-SO 157 -2,0 C 2,0 C
04.03.2012 10:07 3,5 C 67 % 1025,4 hPa 0,0 l/m 8,3 km/h (2 Bft) O-SO 112 -2,0 C 1,3 C
04.03.2012 10:12 3,6 C 67 % 1025,4 hPa 0,0 l/m 11,9 km/h (2 Bft) S-SO 157 -1,9 C 0,6 C
04.03.2012 10:17 3,6 C 66 % 1025,4 hPa 0,0 l/m 15,8 km/h (3 Bft) S-SO 157 -2,1 C -0,1 C
04.03.2012 10:22 3,6 C 66 % 1025,4 hPa 0,0 l/m 8,6 km/h (2 Bft) SO 135 -2,1 C 1,3 C
04.03.2012 10:27 3,6 C 67 % 1025,4 hPa 0,0 l/m 10,8 km/h (2 Bft) O 90 -1,9 C 0,8 C
04.03.2012 10:32 3,6 C 66 % 1025,3 hPa 0,0 l/m 14,8 km/h (3 Bft) S-SO 157 -2,1 C 0,1 C
04.03.2012 10:37 3,6 C 66 % 1025,4 hPa 0,0 l/m 3,2 km/h (1 Bft) O-SO 112 -2,1 C 3,6 C
04.03.2012 10:42 3,6 C 67 % 1025,2 hPa 0,0 l/m 7,6 km/h (2 Bft) O-SO 112 -1,9 C 1,6 C
04.03.2012 10:47 3,6 C 66 % 1025,1 hPa 0,0 l/m 11,5 km/h (2 Bft) SO 135 -2,1 C 0,7 C
04.03.2012 10:52 3,8 C 66 % 1025,1 hPa 0,0 l/m 15,8 km/h (3 Bft) SO 135 -2,0 C 0,1 C
04.03.2012 10:57 3,8 C 66 % 1025,1 hPa 0,0 l/m 5,8 km/h (2 Bft) O 90 -2,0 C 2,4 C
04.03.2012 11:02 3,8 C 66 % 1025,0 hPa 0,0 l/m 11,5 km/h (2 Bft) SO 135 -2,0 C 0,9 C
04.03.2012 11:07 3,9 C 66 % 1024,9 hPa 0,0 l/m 11,5 km/h (2 Bft) O-SO 112 -1,9 C 1,0 C
04.03.2012 11:12 3,9 C 67 % 1024,9 hPa 0,0 l/m 15,5 km/h (3 Bft) SO 135 -1,7 C 0,3 C
04.03.2012 11:17 3,9 C 67 % 1024,9 hPa 0,0 l/m 7,2 km/h (2 Bft) O 90 -1,7 C 2,1 C
04.03.2012 11:22 4,1 C 67 % 1025,0 hPa 0,0 l/m 6,5 km/h (2 Bft) O-SO 112 -1,5 C 2,5 C
04.03.2012 11:27 4,1 C 67 % 1025,0 hPa 0,0 l/m 9,7 km/h (2 Bft) SO 135 -1,5 C 1,7 C
04.03.2012 11:32 4,2 C 67 % 1024,8 hPa 0,0 l/m 9,4 km/h (2 Bft) O-NO 67 -1,4 C 1,8 C
04.03.2012 11:37 4,2 C 66 % 1024,9 hPa 0,0 l/m 5,4 km/h (1 Bft) O 90 -1,6 C 3,0 C
04.03.2012 11:42 4,2 C 67 % 1024,8 hPa 0,0 l/m 4,7 km/h (1 Bft) O-SO 112 -1,4 C 3,3 C
04.03.2012 11:47 4,4 C 66 % 1024,9 hPa 0,0 l/m 13,0 km/h (3 Bft) O-SO 112 -1,4 C 1,3 C
04.03.2012 11:52 4,4 C 65 % 1024,9 hPa 0,0 l/m 10,4 km/h (2 Bft) SO 135 -1,6 C 1,9 C
04.03.2012 11:57 4,4 C 65 % 1025,0 hPa 0,0 l/m 11,9 km/h (2 Bft) O-SO 112 -1,6 C 1,5 C
04.03.2012 12:02 4,4 C 65 % 1024,9 hPa 0,0 l/m 7,9 km/h (2 Bft) O-SO 112 -1,6 C 2,5 C
04.03.2012 12:07 4,4 C 65 % 1024,9 hPa 0,0 l/m 4,0 km/h (1 Bft) O-SO 112 -1,6 C 4,4 C
04.03.2012 12:12 4,5 C 65 % 1024,9 hPa 0,0 l/m 3,2 km/h (1 Bft) O-SO 112 -1,5 C 4,5 C
04.03.2012 12:17 4,6 C 65 % 1024,9 hPa 0,0 l/m 4,7 km/h (1 Bft) O 90 -1,4 C 3,8 C
04.03.2012 12:22 4,6 C 65 % 1024,9 hPa 0,0 l/m 11,9 km/h (2 Bft) O-SO 112 -1,4 C 1,8 C
04.03.2012 12:27 4,7 C 64 % 1024,8 hPa 0,0 l/m 7,9 km/h (2 Bft) O 90 -1,5 C 2,8 C
04.03.2012 12:32 4,8 C 65 % 1025,1 hPa 0,0 l/m 0,0 km/h (0 Bft) O-SO 112 -1,2 C 4,8 C
04.03.2012 12:37 4,7 C 64 % 1024,6 hPa 0,0 l/m 5,8 km/h (2 Bft) O 90 -1,5 C 3,4 C
04.03.2012 12:42 4,7 C 64 % 1024,6 hPa 0,0 l/m 7,9 km/h (2 Bft) SO 135 -1,5 C 2,8 C
04.03.2012 12:47 4,7 C 64 % 1024,6 hPa 0,0 l/m 7,2 km/h (2 Bft) SO 135 -1,5 C 3,0 C
04.03.2012 12:52 4,7 C 64 % 1024,6 hPa 0,0 l/m 3,6 km/h (1 Bft) SO 135 -1,5 C 4,7 C
04.03.2012 12:57 4,7 C 64 % 1024,5 hPa 0,0 l/m 6,8 km/h (2 Bft) O-SO 112 -1,5 C 3,1 C
04.03.2012 13:02 4,7 C 64 % 1024,5 hPa 0,0 l/m 8,6 km/h (2 Bft) O-SO 112 -1,5 C 2,6 C
04.03.2012 13:07 4,7 C 64 % 1024,5 hPa 0,0 l/m 3,6 km/h (1 Bft) O-SO 112 -1,5 C 4,7 C
04.03.2012 13:12 4,7 C 64 % 1024,3 hPa 0,0 l/m 2,5 km/h (1 Bft) SO 135 -1,5 C 4,7 C
04.03.2012 13:17 4,7 C 64 % 1024,3 hPa 0,0 l/m 5,0 km/h (1 Bft) O-SO 112 -1,5 C 3,7 C
04.03.2012 13:22 4,6 C 64 % 1024,3 hPa 0,0 l/m 8,3 km/h (2 Bft) S-SO 157 -1,6 C 2,6 C
04.03.2012 13:27 4,6 C 64 % 1024,3 hPa 0,0 l/m 7,6 km/h (2 Bft) S-SO 157 -1,6 C 2,8 C
04.03.2012 13:32 4,6 C 65 % 1024,1 hPa 0,0 l/m 6,8 km/h (2 Bft) S-SO 157 -1,4 C 3,0 C
04.03.2012 13:37 4,6 C 65 % 1024,0 hPa 0,0 l/m 7,2 km/h (2 Bft) SO 135 -1,4 C 2,9 C
04.03.2012 13:42 4,6 C 65 % 1024,1 hPa 0,0 l/m 8,6 km/h (2 Bft) SO 135 -1,4 C 2,5 C
04.03.2012 13:47 4,7 C 65 % 1024,1 hPa 0,0 l/m 7,6 km/h (2 Bft) SO 135 -1,3 C 2,9 C
04.03.2012 13:52 4,8 C 66 % 1024,0 hPa 0,0 l/m 3,2 km/h (1 Bft) O 90 -1,0 C 4,8 C
04.03.2012 13:57 4,8 C 65 % 1024,0 hPa 0,0 l/m 4,7 km/h (1 Bft) SO 135 -1,2 C 4,0 C
04.03.2012 14:02 4,8 C 65 % 1023,8 hPa 0,0 l/m 4,0 km/h (1 Bft) O 90 -1,2 C 4,8 C
04.03.2012 14:07 4,9 C 66 % 1023,6 hPa 0,0 l/m 2,5 km/h (1 Bft) O-SO 112 -0,9 C 4,9 C
04.03.2012 14:12 4,9 C 66 % 1023,6 hPa 0,0 l/m 2,5 km/h (1 Bft) SO 135 -0,9 C 4,9 C
04.03.2012 14:17 4,9 C 66 % 1023,7 hPa 0,0 l/m 2,9 km/h (1 Bft) O-SO 112 -0,9 C 4,9 C
04.03.2012 14:22 4,9 C 66 % 1023,6 hPa 0,0 l/m 3,2 km/h (1 Bft) O 90 -0,9 C 4,9 C
04.03.2012 14:27 5,0 C 66 % 1023,6 hPa 0,0 l/m 1,4 km/h (1 Bft) O-SO 112 -0,8 C 5,0 C
04.03.2012 14:32 5,0 C 67 % 1023,3 hPa 0,0 l/m 0,0 km/h (0 Bft) O-SO 112 -0,6 C 5,0 C
04.03.2012 14:37 5,1 C 66 % 1023,4 hPa 0,0 l/m 1,4 km/h (1 Bft) SO 135 -0,7 C 5,1 C
04.03.2012 14:42 5,1 C 66 % 1023,3 hPa 0,0 l/m 3,2 km/h (1 Bft) SO 135 -0,7 C 5,1 C
04.03.2012 14:47 5,1 C 66 % 1023,4 hPa 0,0 l/m 0,0 km/h (0 Bft) SO 135 -0,7 C 5,1 C
04.03.2012 14:52 5,2 C 66 % 1023,3 hPa 0,0 l/m 1,8 km/h (1 Bft) O 90 -0,6 C 5,2 C
04.03.2012 14:57 5,2 C 66 % 1023,2 hPa 0,0 l/m 0,0 km/h (0 Bft) SO 135 -0,6 C 5,2 C
04.03.2012 15:02 5,3 C 66 % 1023,3 hPa 0,0 l/m 0,0 km/h (0 Bft) O-SO 112 -0,5 C 5,3 C
04.03.2012 15:07 5,3 C 65 % 1023,2 hPa 0,0 l/m 1,8 km/h (1 Bft) O-SO 112 -0,7 C 5,3 C
04.03.2012 15:12 5,3 C 66 % 1022,9 hPa 0,0 l/m 0,0 km/h (0 Bft) O 90 -0,5 C 5,3 C
04.03.2012 15:17 5,3 C 66 % 1022,9 hPa 0,0 l/m 0,0 km/h (0 Bft) O 90 -0,5 C 5,3 C
04.03.2012 15:22 5,4 C 66 % 1023,0 hPa 0,0 l/m 1,1 km/h (1 Bft) O-SO 112 -0,4 C 5,4 C
04.03.2012 15:27 5,4 C 66 % 1022,9 hPa 0,0 l/m 0,0 km/h (0 Bft) O 90 -0,4 C 5,4 C
04.03.2012 15:32 5,4 C 66 % 1022,8 hPa 0,0 l/m 0,0 km/h (0 Bft) SO 135 -0,4 C 5,4 C
04.03.2012 15:37 5,4 C 66 % 1022,8 hPa 0,0 l/m 0,0 km/h (0 Bft) O-SO 112 -0,4 C 5,4 C
04.03.2012 15:42 5,4 C 66 % 1022,8 hPa 0,0 l/m 0,0 km/h (0 Bft) O-SO 112 -0,4 C 5,4 C
04.03.2012 15:47 5,4 C 66 % 1022,7 hPa 0,0 l/m 0,0 km/h (0 Bft) O-SO 112 -0,4 C 5,4 C
04.03.2012 15:52 5,5 C 66 % 1022,7 hPa 0,0 l/m 0,0 km/h (0 Bft) O-SO 112 -0,3 C 5,5 C
04.03.2012 15:57 5,5 C 66 % 1022,8 hPa 0,0 l/m 0,0 km/h (0 Bft) O 90 -0,3 C 5,5 C
04.03.2012 16:02 5,6 C 66 % 1022,8 hPa 0,0 l/m 0,0 km/h (0 Bft) O 90 -0,2 C 5,6 C
04.03.2012 16:07 5,7 C 66 % 1022,6 hPa 0,0 l/m 1,8 km/h (1 Bft) O 90 -0,1 C 5,7 C
04.03.2012 16:12 5,8 C 65 % 1022,5 hPa 0,0 l/m 2,2 km/h (1 Bft) O 90 -0,3 C 5,8 C
04.03.2012 16:17 5,8 C 65 % 1022,4 hPa 0,0 l/m 0,0 km/h (0 Bft) O-NO 67 -0,3 C 5,8 C
04.03.2012 16:22 5,8 C 65 % 1022,4 hPa 0,0 l/m 0,0 km/h (0 Bft) O-NO 67 -0,3 C 5,8 C
04.03.2012 16:27 5,9 C 65 % 1022,5 hPa 0,0 l/m 2,5 km/h (1 Bft) O 90 -0,2 C 5,9 C
04.03.2012 16:32 5,9 C 65 % 1022,3 hPa 0,0 l/m 2,5 km/h (1 Bft) O-SO 112 -0,2 C 5,9 C
04.03.2012 16:37 5,9 C 65 % 1022,4 hPa 0,0 l/m 4,0 km/h (1 Bft) O 90 -0,2 C 5,9 C
04.03.2012 16:42 5,9 C 66 % 1022,3 hPa 0,0 l/m 0,0 km/h (0 Bft) O 90 0,0 C 5,9 C
04.03.2012 16:47 5,9 C 66 % 1022,3 hPa 0,0 l/m 3,2 km/h (1 Bft) O-NO 67 0,0 C 5,9 C
04.03.2012 16:52 5,9 C 66 % 1022,3 hPa 0,0 l/m 2,5 km/h (1 Bft) O-SO 112 0,0 C 5,9 C
04.03.2012 16:57 5,9 C 67 % 1022,2 hPa 0,0 l/m 0,0 km/h (0 Bft) SO 135 0,3 C 5,9 C
04.03.2012 17:02 5,9 C 67 % 1022,3 hPa 0,0 l/m 2,5 km/h (1 Bft) SO 135 0,3 C 5,9 C
04.03.2012 17:07 6,0 C 67 % 1022,2 hPa 0,0 l/m 2,2 km/h (1 Bft) O 90 0,3 C 6,0 C
04.03.2012 17:12 6,1 C 66 % 1022,1 hPa 0,0 l/m 6,8 km/h (2 Bft) SO 135 0,2 C 4,7 C
04.03.2012 17:17 6,1 C 66 % 1022,1 hPa 0,0 l/m 3,6 km/h (1 Bft) SO 135 0,2 C 6,1 C
04.03.2012 17:22 6,1 C 66 % 1022,1 hPa 0,0 l/m 2,9 km/h (1 Bft) O 90 0,2 C 6,1 C
04.03.2012 17:27 6,2 C 66 % 1022,2 hPa 0,0 l/m 2,5 km/h (1 Bft) O-SO 112 0,3 C 6,2 C
04.03.2012 17:32 6,2 C 65 % 1022,2 hPa 0,0 l/m 3,2 km/h (1 Bft) SO 135 0,1 C 6,2 C
04.03.2012 17:37 6,2 C 65 % 1022,2 hPa 0,0 l/m 3,2 km/h (1 Bft) O-SO 112 0,1 C 6,2 C
04.03.2012 17:42 6,2 C 65 % 1022,1 hPa 0,0 l/m 5,0 km/h (1 Bft) O-SO 112 0,1 C 5,4 C
04.03.2012 17:47 6,2 C 65 % 1022,2 hPa 0,0 l/m 5,8 km/h (2 Bft) SO 135 0,1 C 5,2 C
04.03.2012 17:52 6,1 C 65 % 1022,1 hPa 0,0 l/m 3,6 km/h (1 Bft) SO 135 0,0 C 6,1 C
04.03.2012 17:57 6,1 C 65 % 1022,2 hPa 0,0 l/m 4,7 km/h (1 Bft) O-SO 112 0,0 C 5,4 C
04.03.2012 18:02 6,1 C 64 % 1022,1 hPa 0,0 l/m 4,0 km/h (1 Bft) O-SO 112 -0,2 C 6,1 C
04.03.2012 18:07 6,1 C 64 % 1022,1 hPa 0,0 l/m 5,8 km/h (2 Bft) O-SO 112 -0,2 C 5,1 C
04.03.2012 18:12 6,0 C 64 % 1022,3 hPa 0,0 l/m 7,9 km/h (2 Bft) O-SO 112 -0,3 C 4,3 C
04.03.2012 18:17 5,9 C 64 % 1022,2 hPa 0,0 l/m 3,2 km/h (1 Bft) O 90 -0,4 C 5,9 C
04.03.2012 18:22 5,9 C 63 % 1022,3 hPa 0,0 l/m 8,6 km/h (2 Bft) O-SO 112 -0,6 C 4,0 C
04.03.2012 18:27 5,9 C 63 % 1022,1 hPa 0,0 l/m 6,5 km/h (2 Bft) O-SO 112 -0,6 C 4,6 C
04.03.2012 18:32 5,9 C 62 % 1022,2 hPa 0,0 l/m 4,0 km/h (1 Bft) SO 135 -0,8 C 5,9 C
04.03.2012 18:37 5,9 C 62 % 1022,3 hPa 0,0 l/m 7,2 km/h (2 Bft) O-SO 112 -0,8 C 4,4 C
04.03.2012 18:42 5,8 C 62 % 1022,2 hPa 0,0 l/m 11,2 km/h (2 Bft) O-SO 112 -0,9 C 3,4 C
04.03.2012 18:47 5,8 C 61 % 1022,2 hPa 0,0 l/m 3,2 km/h (1 Bft) O 90 -1,1 C 5,8 C
04.03.2012 18:52 5,8 C 61 % 1022,2 hPa 0,0 l/m 10,8 km/h (2 Bft) O-SO 112 -1,1 C 3,5 C
04.03.2012 18:57 5,7 C 60 % 1022,3 hPa 0,0 l/m 10,1 km/h (2 Bft) O-SO 112 -1,4 C 3,5 C
04.03.2012 19:02 5,6 C 59 % 1022,1 hPa 0,0 l/m 10,4 km/h (2 Bft) O 90 -1,8 C 3,3 C
04.03.2012 19:07 5,6 C 59 % 1022,1 hPa 0,0 l/m 10,4 km/h (2 Bft) O-SO 112 -1,8 C 3,3 C
04.03.2012 19:12 5,6 C 59 % 1022,0 hPa 0,0 l/m 9,0 km/h (2 Bft) O-SO 112 -1,8 C 3,6 C
04.03.2012 19:17 5,5 C 59 % 1022,1 hPa 0,0 l/m 19,4 km/h (3 Bft) O-SO 112 -1,9 C 1,8 C
04.03.2012 19:22 5,5 C 59 % 1022,1 hPa 0,0 l/m 8,3 km/h (2 Bft) O-SO 112 -1,9 C 3,6 C
04.03.2012 19:27 5,4 C 59 % 1022,0 hPa 0,0 l/m 10,1 km/h (2 Bft) O 90 -2,0 C 3,1 C
04.03.2012 19:32 5,4 C 58 % 1022,1 hPa 0,0 l/m 14,8 km/h (3 Bft) O-SO 112 -2,2 C 2,3 C
04.03.2012 19:37 5,3 C 58 % 1022,1 hPa 0,0 l/m 13,0 km/h (3 Bft) O-NO 67 -2,3 C 2,4 C
04.03.2012 19:42 5,3 C 58 % 1022,1 hPa 0,0 l/m 6,1 km/h (2 Bft) O-NO 67 -2,3 C 4,0 C
04.03.2012 19:47 5,2 C 59 % 1022,1 hPa 0,0 l/m 10,4 km/h (2 Bft) O-NO 67 -2,1 C 2,8 C
04.03.2012 19:52 5,1 C 59 % 1022,1 hPa 0,0 l/m 11,2 km/h (2 Bft) O-SO 112 -2,2 C 2,5 C
04.03.2012 19:57 5,1 C 59 % 1022,2 hPa 0,0 l/m 12,2 km/h (2 Bft) SO 135 -2,2 C 2,3 C
04.03.2012 20:02 5,0 C 59 % 1022,2 hPa 0,0 l/m 11,9 km/h (2 Bft) O 90 -2,3 C 2,3 C
04.03.2012 20:07 4,9 C 59 % 1022,2 hPa 0,0 l/m 13,7 km/h (3 Bft) O-NO 67 -2,4 C 1,8 C
04.03.2012 20:12 4,9 C 59 % 1022,2 hPa 0,0 l/m 15,1 km/h (3 Bft) O-SO 112 -2,4 C 1,6 C
04.03.2012 20:17 4,9 C 59 % 1022,1 hPa 0,0 l/m 7,9 km/h (2 Bft) SO 135 -2,4 C 3,0 C
04.03.2012 20:22 4,8 C 59 % 1022,1 hPa 0,0 l/m 9,4 km/h (2 Bft) O-SO 112 -2,5 C 2,6 C
04.03.2012 20:27 4,7 C 59 % 1022,0 hPa 0,0 l/m 9,7 km/h (2 Bft) SO 135 -2,6 C 2,4 C
04.03.2012 20:32 4,6 C 59 % 1022,0 hPa 0,0 l/m 14,4 km/h (3 Bft) O 90 -2,7 C 1,4 C
04.03.2012 20:37 4,6 C 59 % 1022,1 hPa 0,0 l/m 9,4 km/h (2 Bft) O 90 -2,7 C 2,3 C
04.03.2012 20:42 4,5 C 60 % 1022,1 hPa 0,0 l/m 20,5 km/h (4 Bft) O-SO 112 -2,6 C 0,4 C
04.03.2012 20:47 4,5 C 60 % 1022,1 hPa 0,0 l/m 11,2 km/h (2 Bft) O-NO 67 -2,6 C 1,8 C
04.03.2012 20:52 4,4 C 60 % 1022,0 hPa 0,0 l/m 11,9 km/h (2 Bft) O 90 -2,7 C 1,5 C
04.03.2012 20:57 4,4 C 60 % 1022,1 hPa 0,0 l/m 13,3 km/h (3 Bft) O-SO 112 -2,7 C 1,3 C
04.03.2012 21:02 4,4 C 61 % 1022,1 hPa 0,0 l/m 10,4 km/h (2 Bft) O 90 -2,4 C 1,9 C
04.03.2012 21:07 4,4 C 61 % 1022,0 hPa 0,0 l/m 9,7 km/h (2 Bft) O-SO 112 -2,4 C 2,0 C
04.03.2012 21:12 4,4 C 62 % 1022,1 hPa 0,0 l/m 14,4 km/h (3 Bft) O 90 -2,2 C 1,1 C
04.03.2012 21:17 4,4 C 62 % 1022,1 hPa 0,0 l/m 7,6 km/h (2 Bft) S-SO 157 -2,2 C 2,5 C
04.03.2012 21:22 4,3 C 62 % 1021,9 hPa 0,0 l/m 9,7 km/h (2 Bft) SO 135 -2,3 C 1,9 C
04.03.2012 21:27 4,3 C 62 % 1021,9 hPa 0,0 l/m 14,4 km/h (3 Bft) O 90 -2,3 C 1,0 C
04.03.2012 21:32 4,2 C 62 % 1021,9 hPa 0,0 l/m 6,8 km/h (2 Bft) O 90 -2,4 C 2,5 C
04.03.2012 21:37 4,2 C 62 % 1021,9 hPa 0,0 l/m 9,4 km/h (2 Bft) O-SO 112 -2,4 C 1,8 C
04.03.2012 21:42 4,1 C 62 % 1021,9 hPa 0,0 l/m 9,4 km/h (2 Bft) O-NO 67 -2,5 C 1,7 C
04.03.2012 21:47 4,1 C 62 % 1021,8 hPa 0,0 l/m 5,0 km/h (1 Bft) O 90 -2,5 C 3,1 C
04.03.2012 21:52 3,9 C 62 % 1021,7 hPa 0,0 l/m 14,4 km/h (3 Bft) O-SO 112 -2,7 C 0,5 C
04.03.2012 21:57 3,9 C 62 % 1021,8 hPa 0,0 l/m 8,6 km/h (2 Bft) O-SO 112 -2,7 C 1,7 C
04.03.2012 22:02 3,9 C 62 % 1021,8 hPa 0,0 l/m 12,2 km/h (2 Bft) O-SO 112 -2,7 C 0,9 C
04.03.2012 22:07 3,9 C 62 % 1021,7 hPa 0,0 l/m 9,7 km/h (2 Bft) O-SO 112 -2,7 C 1,4 C
04.03.2012 22:12 3,8 C 61 % 1021,6 hPa 0,0 l/m 6,8 km/h (2 Bft) SO 135 -3,0 C 2,1 C
04.03.2012 22:17 3,8 C 61 % 1021,6 hPa 0,0 l/m 9,0 km/h (2 Bft) O-SO 112 -3,0 C 1,5 C
04.03.2012 22:22 3,8 C 61 % 1021,7 hPa 0,0 l/m 10,1 km/h (2 Bft) O-SO 112 -3,0 C 1,2 C
04.03.2012 22:27 3,8 C 61 % 1021,6 hPa 0,0 l/m 15,5 km/h (3 Bft) SO 135 -3,0 C 0,2 C
04.03.2012 22:32 3,9 C 59 % 1021,7 hPa 0,0 l/m 15,8 km/h (3 Bft) SO 135 -3,4 C 0,3 C
04.03.2012 22:37 3,9 C 59 % 1021,5 hPa 0,0 l/m 15,1 km/h (3 Bft) O 90 -3,4 C 0,4 C
04.03.2012 22:42 3,9 C 58 % 1021,5 hPa 0,0 l/m 20,5 km/h (4 Bft) O-SO 112 -3,6 C -0,4 C
04.03.2012 22:47 3,9 C 57 % 1021,5 hPa 0,0 l/m 19,8 km/h (3 Bft) SO 135 -3,8 C -0,3 C
04.03.2012 22:52 3,8 C 57 % 1021,6 hPa 0,0 l/m 11,5 km/h (2 Bft) O 90 -3,9 C 0,9 C
04.03.2012 22:57 3,8 C 57 % 1021,4 hPa 0,0 l/m 9,4 km/h (2 Bft) O 90 -3,9 C 1,4 C
04.03.2012 23:02 3,8 C 57 % 1021,5 hPa 0,0 l/m 6,1 km/h (2 Bft) O-SO 112 -3,9 C 2,3 C
04.03.2012 23:07 3,7 C 57 % 1021,5 hPa 0,0 l/m 15,5 km/h (3 Bft) O-SO 112 -4,0 C 0,1 C
04.03.2012 23:12 3,6 C 57 % 1021,4 hPa 0,0 l/m 13,3 km/h (3 Bft) O-NO 67 -4,1 C 0,3 C
04.03.2012 23:17 3,6 C 57 % 1021,5 hPa 0,0 l/m 18,4 km/h (3 Bft) O-SO 112 -4,1 C -0,5 C
04.03.2012 23:22 3,5 C 57 % 1021,4 hPa 0,0 l/m 14,4 km/h (3 Bft) O 90 -4,2 C -0,0 C
04.03.2012 23:27 3,5 C 57 % 1021,4 hPa 0,0 l/m 11,2 km/h (2 Bft) O-NO 67 -4,2 C 0,6 C
04.03.2012 23:32 3,4 C 58 % 1021,4 hPa 0,0 l/m 19,4 km/h (3 Bft) S-SO 157 -4,1 C -0,9 C
04.03.2012 23:37 3,4 C 58 % 1021,4 hPa 0,0 l/m 7,6 km/h (2 Bft) S-SO 157 -4,1 C 1,4 C
04.03.2012 23:42 3,3 C 58 % 1021,3 hPa 0,0 l/m 4,0 km/h (1 Bft) O-SO 112 -4,2 C 3,3 C
04.03.2012 23:47 3,3 C 58 % 1021,3 hPa 0,0 l/m 23,4 km/h (4 Bft) SO 135 -4,2 C -1,5 C
04.03.2012 23:52 3,2 C 59 % 1021,3 hPa 0,0 l/m 8,6 km/h (2 Bft) S-SO 157 -4,0 C 0,9 C
04.03.2012 23:57 3,1 C 59 % 1021,3 hPa 0,0 l/m 19,1 km/h (3 Bft) O-NO 67 -4,1 C -1,2 C
_ Min-Zeit 04:12 22:47 23:42 - 12:32 - - 23:22 23:47
Minimum _ 2,9 C 57 % 1021,3 hPa - 0,0 km/h (0 Bft) - - -4,2 C -1,5 C
_ Max-Zeit 17:27 09:27 00:02 00:02 23:47 - - 17:07 17:27
Maximum _ 6,2 C 71 % 1027,2 hPa 0,0 l/m 23,4 km/h
SO (4 Bft)
- - 0,3 C 6,2 C
Durchschnitt _ 4,1 C 65 % 1024,2 hPa #0,0 l/m 7,6 km/h (2 Bft) O-SO - -1,9 C 2,4 C
(c) by David Heller